sensor_id;sensor_type;location;lat;lon;timestamp;P1;durP1;ratioP1;P2;durP2;ratioP2
78169;SDS011;67412;49.892;14.490;2023-03-23T00:02:23;9.13;;;3.38;;
78169;SDS011;67412;49.892;14.490;2023-03-23T00:04:49;9.48;;;3.17;;
78169;SDS011;67412;49.892;14.490;2023-03-23T00:07:15;12.07;;;4.03;;
78169;SDS011;67412;49.892;14.490;2023-03-23T00:09:46;12.05;;;4.32;;
78169;SDS011;67412;49.892;14.490;2023-03-23T00:12:12;9.95;;;4.13;;
78169;SDS011;67412;49.892;14.490;2023-03-23T00:14:40;11.10;;;3.60;;
78169;SDS011;67412;49.892;14.490;2023-03-23T00:17:06;11.00;;;3.92;;
78169;SDS011;67412;49.892;14.490;2023-03-23T00:19:38;11.20;;;3.92;;
78169;SDS011;67412;49.892;14.490;2023-03-23T00:22:13;8.65;;;3.65;;
78169;SDS011;67412;49.892;14.490;2023-03-23T00:24:41;7.53;;;2.50;;
78169;SDS011;67412;49.892;14.490;2023-03-23T00:27:07;8.75;;;3.42;;
78169;SDS011;67412;49.892;14.490;2023-03-23T00:29:39;8.27;;;3.25;;
78169;SDS011;67412;49.892;14.490;2023-03-23T00:32:06;8.40;;;3.05;;
78169;SDS011;67412;49.892;14.490;2023-03-23T00:34:37;8.18;;;3.10;;
78169;SDS011;67412;49.892;14.490;2023-03-23T00:37:03;9.07;;;3.35;;
78169;SDS011;67412;49.892;14.490;2023-03-23T00:39:28;8.38;;;3.13;;
78169;SDS011;67412;49.892;14.490;2023-03-23T00:41:55;9.13;;;3.42;;
78169;SDS011;67412;49.892;14.490;2023-03-23T00:44:26;9.00;;;3.17;;
78169;SDS011;67412;49.892;14.490;2023-03-23T00:46:53;9.50;;;3.30;;
78169;SDS011;67412;49.892;14.490;2023-03-23T00:49:21;8.93;;;3.45;;
78169;SDS011;67412;49.892;14.490;2023-03-23T00:51:51;9.07;;;3.20;;
78169;SDS011;67412;49.892;14.490;2023-03-23T00:56:43;8.18;;;3.45;;
78169;SDS011;67412;49.892;14.490;2023-03-23T00:59:08;9.38;;;3.60;;
78169;SDS011;67412;49.892;14.490;2023-03-23T01:01:33;9.00;;;3.38;;
78169;SDS011;67412;49.892;14.490;2023-03-23T01:04:00;9.18;;;3.25;;
78169;SDS011;67412;49.892;14.490;2023-03-23T01:06:29;9.77;;;3.22;;
78169;SDS011;67412;49.892;14.490;2023-03-23T01:11:21;9.30;;;3.13;;
78169;SDS011;67412;49.892;14.490;2023-03-23T01:13:47;8.20;;;3.05;;
78169;SDS011;67412;49.892;14.490;2023-03-23T01:16:12;7.93;;;3.05;;
78169;SDS011;67412;49.892;14.490;2023-03-23T01:18:38;9.88;;;3.78;;
78169;SDS011;67412;49.892;14.490;2023-03-23T01:21:08;8.98;;;3.53;;
78169;SDS011;67412;49.892;14.490;2023-03-23T01:23:38;8.50;;;3.47;;
78169;SDS011;67412;49.892;14.490;2023-03-23T01:26:05;9.18;;;3.55;;
78169;SDS011;67412;49.892;14.490;2023-03-23T01:28:39;9.80;;;3.28;;
78169;SDS011;67412;49.892;14.490;2023-03-23T01:31:09;7.45;;;3.05;;
78169;SDS011;67412;49.892;14.490;2023-03-23T01:33:39;9.00;;;3.00;;
78169;SDS011;67412;49.892;14.490;2023-03-23T01:36:05;8.13;;;3.03;;
78169;SDS011;67412;49.892;14.490;2023-03-23T01:38:35;6.15;;;2.85;;
78169;SDS011;67412;49.892;14.490;2023-03-23T01:41:01;8.45;;;3.08;;
78169;SDS011;67412;49.892;14.490;2023-03-23T01:43:28;12.57;;;3.42;;
78169;SDS011;67412;49.892;14.490;2023-03-23T01:45:53;9.00;;;2.97;;
78169;SDS011;67412;49.892;14.490;2023-03-23T01:48:29;7.60;;;2.90;;
78169;SDS011;67412;49.892;14.490;2023-03-23T01:51:04;8.15;;;2.80;;
78169;SDS011;67412;49.892;14.490;2023-03-23T01:53:37;9.23;;;3.30;;
78169;SDS011;67412;49.892;14.490;2023-03-23T01:56:06;7.80;;;2.95;;
78169;SDS011;67412;49.892;14.490;2023-03-23T01:58:33;8.43;;;2.97;;
78169;SDS011;67412;49.892;14.490;2023-03-23T02:01:03;7.78;;;3.17;;
78169;SDS011;67412;49.892;14.490;2023-03-23T02:03:32;9.13;;;3.35;;
78169;SDS011;67412;49.892;14.490;2023-03-23T02:06:00;11.80;;;3.60;;
78169;SDS011;67412;49.892;14.490;2023-03-23T02:08:28;8.60;;;3.17;;
78169;SDS011;67412;49.892;14.490;2023-03-23T02:10:57;9.13;;;3.20;;
78169;SDS011;67412;49.892;14.490;2023-03-23T02:13:23;9.15;;;3.22;;
78169;SDS011;67412;49.892;14.490;2023-03-23T02:32:26;8.75;;;3.47;;
78169;SDS011;67412;49.892;14.490;2023-03-23T02:35:22;7.82;;;2.97;;
78169;SDS011;67412;49.892;14.490;2023-03-23T02:37:58;7.43;;;3.35;;
78169;SDS011;67412;49.892;14.490;2023-03-23T02:40:30;8.85;;;3.45;;
78169;SDS011;67412;49.892;14.490;2023-03-23T02:43:04;7.97;;;3.17;;
78169;SDS011;67412;49.892;14.490;2023-03-23T02:45:34;10.00;;;3.65;;
78169;SDS011;67412;49.892;14.490;2023-03-23T02:48:03;6.70;;;2.88;;
78169;SDS011;67412;49.892;14.490;2023-03-23T02:50:30;9.55;;;3.85;;
78169;SDS011;67412;49.892;14.490;2023-03-23T02:52:58;9.68;;;3.50;;
78169;SDS011;67412;49.892;14.490;2023-03-23T02:55:26;7.75;;;3.58;;
78169;SDS011;67412;49.892;14.490;2023-03-23T02:57:55;9.68;;;3.17;;
78169;SDS011;67412;49.892;14.490;2023-03-23T03:00:21;10.95;;;3.38;;
78169;SDS011;67412;49.892;14.490;2023-03-23T03:02:51;7.53;;;2.95;;
78169;SDS011;67412;49.892;14.490;2023-03-23T03:11:02;9.25;;;3.65;;
78169;SDS011;67412;49.892;14.490;2023-03-23T03:14:06;9.35;;;3.28;;
78169;SDS011;67412;49.892;14.490;2023-03-23T03:16:28;8.30;;;3.53;;
78169;SDS011;67412;49.892;14.490;2023-03-23T03:19:20;10.70;;;3.72;;
78169;SDS011;67412;49.892;14.490;2023-03-23T03:21:52;9.18;;;3.90;;
78169;SDS011;67412;49.892;14.490;2023-03-23T03:24:20;9.40;;;3.60;;
78169;SDS011;67412;49.892;14.490;2023-03-23T03:26:48;9.00;;;4.10;;
78169;SDS011;67412;49.892;14.490;2023-03-23T03:29:20;10.65;;;4.07;;
78169;SDS011;67412;49.892;14.490;2023-03-23T03:31:49;11.75;;;4.15;;
78169;SDS011;67412;49.892;14.490;2023-03-23T03:34:20;10.32;;;4.05;;
78169;SDS011;67412;49.892;14.490;2023-03-23T03:36:46;8.73;;;3.40;;
78169;SDS011;67412;49.892;14.490;2023-03-23T03:39:15;10.80;;;4.15;;
78169;SDS011;67412;49.892;14.490;2023-03-23T03:41:42;9.93;;;4.20;;
78169;SDS011;67412;49.892;14.490;2023-03-23T03:44:08;12.02;;;4.28;;
78169;SDS011;67412;49.892;14.490;2023-03-23T03:46:34;13.00;;;4.38;;
78169;SDS011;67412;49.892;14.490;2023-03-23T03:49:01;8.60;;;3.70;;
78169;SDS011;67412;49.892;14.490;2023-03-23T03:51:28;8.38;;;3.33;;
78169;SDS011;67412;49.892;14.490;2023-03-23T03:53:54;10.15;;;3.80;;
78169;SDS011;67412;49.892;14.490;2023-03-23T03:56:20;9.85;;;3.97;;
78169;SDS011;67412;49.892;14.490;2023-03-23T03:58:47;9.40;;;3.83;;
78169;SDS011;67412;49.892;14.490;2023-03-23T04:01:13;13.15;;;4.70;;
78169;SDS011;67412;49.892;14.490;2023-03-23T04:03:40;9.93;;;3.88;;
78169;SDS011;67412;49.892;14.490;2023-03-23T04:06:06;8.98;;;3.47;;
78169;SDS011;67412;49.892;14.490;2023-03-23T04:08:33;9.43;;;3.83;;
78169;SDS011;67412;49.892;14.490;2023-03-23T04:10:58;8.38;;;3.50;;
78169;SDS011;67412;49.892;14.490;2023-03-23T04:13:24;10.07;;;3.95;;
78169;SDS011;67412;49.892;14.490;2023-03-23T04:15:49;10.70;;;4.03;;
78169;SDS011;67412;49.892;14.490;2023-03-23T04:18:15;9.90;;;4.18;;
78169;SDS011;67412;49.892;14.490;2023-03-23T04:20:43;10.38;;;3.92;;
78169;SDS011;67412;49.892;14.490;2023-03-23T04:23:12;10.02;;;3.97;;
78169;SDS011;67412;49.892;14.490;2023-03-23T04:25:45;9.60;;;4.30;;
78169;SDS011;67412;49.892;14.490;2023-03-23T04:28:12;9.38;;;3.53;;
78169;SDS011;67412;49.892;14.490;2023-03-23T04:30:37;10.00;;;3.50;;
78169;SDS011;67412;49.892;14.490;2023-03-23T04:33:03;9.25;;;3.28;;
78169;SDS011;67412;49.892;14.490;2023-03-23T04:35:30;11.45;;;3.65;;
78169;SDS011;67412;49.892;14.490;2023-03-23T04:37:56;9.45;;;3.47;;
78169;SDS011;67412;49.892;14.490;2023-03-23T04:40:22;9.63;;;3.53;;
78169;SDS011;67412;49.892;14.490;2023-03-23T04:42:48;10.52;;;3.58;;
78169;SDS011;67412;49.892;14.490;2023-03-23T04:45:16;7.75;;;2.70;;
78169;SDS011;67412;49.892;14.490;2023-03-23T04:47:46;9.00;;;3.45;;
78169;SDS011;67412;49.892;14.490;2023-03-23T04:50:22;10.77;;;4.00;;
78169;SDS011;67412;49.892;14.490;2023-03-23T04:52:49;8.05;;;3.22;;
78169;SDS011;67412;49.892;14.490;2023-03-23T04:55:17;10.25;;;3.00;;
78169;SDS011;67412;49.892;14.490;2023-03-23T04:57:43;8.27;;;3.10;;
78169;SDS011;67412;49.892;14.490;2023-03-23T05:00:09;8.65;;;3.53;;
78169;SDS011;67412;49.892;14.490;2023-03-23T05:02:39;7.95;;;3.28;;
78169;SDS011;67412;49.892;14.490;2023-03-23T05:05:06;9.45;;;3.25;;
78169;SDS011;67412;49.892;14.490;2023-03-23T05:07:33;9.05;;;3.55;;
78169;SDS011;67412;49.892;14.490;2023-03-23T05:09:58;6.90;;;2.78;;
78169;SDS011;67412;49.892;14.490;2023-03-23T05:12:24;7.80;;;2.95;;
78169;SDS011;67412;49.892;14.490;2023-03-23T05:14:50;9.43;;;3.05;;
78169;SDS011;67412;49.892;14.490;2023-03-23T05:17:15;8.65;;;3.35;;
78169;SDS011;67412;49.892;14.490;2023-03-23T05:19:42;8.13;;;3.03;;
78169;SDS011;67412;49.892;14.490;2023-03-23T05:22:09;8.55;;;3.33;;
78169;SDS011;67412;49.892;14.490;2023-03-23T05:24:37;6.72;;;2.83;;
78169;SDS011;67412;49.892;14.490;2023-03-23T05:27:03;9.07;;;2.97;;
78169;SDS011;67412;49.892;14.490;2023-03-23T05:29:28;9.07;;;3.45;;
78169;SDS011;67412;49.892;14.490;2023-03-23T05:34:24;7.57;;;2.85;;
78169;SDS011;67412;49.892;14.490;2023-03-23T05:36:51;6.78;;;2.70;;
78169;SDS011;67412;49.892;14.490;2023-03-23T05:39:18;7.10;;;2.90;;
78169;SDS011;67412;49.892;14.490;2023-03-23T05:41:43;6.55;;;2.83;;
78169;SDS011;67412;49.892;14.490;2023-03-23T05:44:09;7.78;;;2.83;;
78169;SDS011;67412;49.892;14.490;2023-03-23T05:46:34;8.93;;;2.72;;
78169;SDS011;67412;49.892;14.490;2023-03-23T05:49:00;8.50;;;2.70;;
78169;SDS011;67412;49.892;14.490;2023-03-23T05:51:26;8.82;;;2.72;;
78169;SDS011;67412;49.892;14.490;2023-03-23T05:53:51;8.43;;;2.42;;
78169;SDS011;67412;49.892;14.490;2023-03-23T05:56:17;8.20;;;2.90;;
78169;SDS011;67412;49.892;14.490;2023-03-23T05:58:43;7.43;;;2.75;;
78169;SDS011;67412;49.892;14.490;2023-03-23T06:01:08;9.45;;;2.95;;
78169;SDS011;67412;49.892;14.490;2023-03-23T06:03:34;7.68;;;2.75;;
78169;SDS011;67412;49.892;14.490;2023-03-23T06:06:02;8.50;;;2.60;;
78169;SDS011;67412;49.892;14.490;2023-03-23T06:08:28;7.63;;;2.85;;
78169;SDS011;67412;49.892;14.490;2023-03-23T06:10:55;7.60;;;2.63;;
78169;SDS011;67412;49.892;14.490;2023-03-23T06:13:20;7.22;;;2.75;;
78169;SDS011;67412;49.892;14.490;2023-03-23T06:15:46;6.53;;;2.45;;
78169;SDS011;67412;49.892;14.490;2023-03-23T06:18:12;8.50;;;3.40;;
78169;SDS011;67412;49.892;14.490;2023-03-23T06:20:38;7.22;;;2.25;;
78169;SDS011;67412;49.892;14.490;2023-03-23T06:23:04;7.80;;;2.67;;
78169;SDS011;67412;49.892;14.490;2023-03-23T06:25:31;10.18;;;2.88;;
78169;SDS011;67412;49.892;14.490;2023-03-23T06:27:56;6.57;;;3.05;;
78169;SDS011;67412;49.892;14.490;2023-03-23T06:30:22;8.05;;;3.00;;
78169;SDS011;67412;49.892;14.490;2023-03-23T06:32:48;8.52;;;3.08;;
78169;SDS011;67412;49.892;14.490;2023-03-23T06:35:14;7.32;;;2.08;;
78169;SDS011;67412;49.892;14.490;2023-03-23T06:37:40;6.25;;;2.22;;
78169;SDS011;67412;49.892;14.490;2023-03-23T06:40:05;6.57;;;2.67;;
78169;SDS011;67412;49.892;14.490;2023-03-23T06:42:32;7.53;;;2.50;;
78169;SDS011;67412;49.892;14.490;2023-03-23T06:44:58;7.53;;;2.85;;
78169;SDS011;67412;49.892;14.490;2023-03-23T06:47:25;6.10;;;2.22;;
78169;SDS011;67412;49.892;14.490;2023-03-23T06:49:51;6.63;;;2.30;;
78169;SDS011;67412;49.892;14.490;2023-03-23T06:52:16;5.78;;;2.15;;
78169;SDS011;67412;49.892;14.490;2023-03-23T06:54:42;8.20;;;2.60;;
78169;SDS011;67412;49.892;14.490;2023-03-23T06:57:08;6.95;;;2.40;;
78169;SDS011;67412;49.892;14.490;2023-03-23T06:59:33;5.90;;;1.88;;
78169;SDS011;67412;49.892;14.490;2023-03-23T07:01:59;6.07;;;2.28;;
78169;SDS011;67412;49.892;14.490;2023-03-23T07:04:24;6.88;;;2.10;;
78169;SDS011;67412;49.892;14.490;2023-03-23T07:06:49;6.22;;;1.90;;
78169;SDS011;67412;49.892;14.490;2023-03-23T07:09:15;5.35;;;1.85;;
78169;SDS011;67412;49.892;14.490;2023-03-23T07:11:40;5.88;;;2.08;;
78169;SDS011;67412;49.892;14.490;2023-03-23T07:14:06;7.80;;;2.10;;
78169;SDS011;67412;49.892;14.490;2023-03-23T07:16:31;5.90;;;1.98;;
78169;SDS011;67412;49.892;14.490;2023-03-23T07:18:57;5.75;;;1.67;;
78169;SDS011;67412;49.892;14.490;2023-03-23T07:21:22;5.32;;;2.00;;
78169;SDS011;67412;49.892;14.490;2023-03-23T07:23:48;6.30;;;1.90;;
78169;SDS011;67412;49.892;14.490;2023-03-23T07:26:13;7.30;;;2.00;;
78169;SDS011;67412;49.892;14.490;2023-03-23T07:28:38;4.40;;;1.70;;
78169;SDS011;67412;49.892;14.490;2023-03-23T07:31:05;6.32;;;1.70;;
78169;SDS011;67412;49.892;14.490;2023-03-23T07:33:33;4.85;;;1.85;;
78169;SDS011;67412;49.892;14.490;2023-03-23T07:36:00;7.25;;;2.35;;
78169;SDS011;67412;49.892;14.490;2023-03-23T07:38:27;5.63;;;1.88;;
78169;SDS011;67412;49.892;14.490;2023-03-23T07:40:52;4.78;;;1.70;;
78169;SDS011;67412;49.892;14.490;2023-03-23T07:43:18;5.32;;;1.77;;
78169;SDS011;67412;49.892;14.490;2023-03-23T07:45:45;6.97;;;1.80;;
78169;SDS011;67412;49.892;14.490;2023-03-23T07:48:10;5.32;;;1.67;;
78169;SDS011;67412;49.892;14.490;2023-03-23T07:50:36;6.88;;;2.22;;
78169;SDS011;67412;49.892;14.490;2023-03-23T07:53:02;6.00;;;1.75;;
78169;SDS011;67412;49.892;14.490;2023-03-23T07:55:28;5.93;;;2.03;;
78169;SDS011;67412;49.892;14.490;2023-03-23T07:57:53;5.22;;;2.00;;
78169;SDS011;67412;49.892;14.490;2023-03-23T08:00:20;5.18;;;1.95;;
78169;SDS011;67412;49.892;14.490;2023-03-23T08:02:49;5.82;;;1.70;;
78169;SDS011;67412;49.892;14.490;2023-03-23T08:05:16;5.03;;;1.90;;
78169;SDS011;67412;49.892;14.490;2023-03-23T08:07:42;4.30;;;1.52;;
78169;SDS011;67412;49.892;14.490;2023-03-23T08:10:09;4.95;;;1.70;;
78169;SDS011;67412;49.892;14.490;2023-03-23T08:12:38;8.60;;;1.88;;
78169;SDS011;67412;49.892;14.490;2023-03-23T08:17:31;4.75;;;1.55;;
78169;SDS011;67412;49.892;14.490;2023-03-23T08:19:57;4.40;;;1.52;;
78169;SDS011;67412;49.892;14.490;2023-03-23T08:22:23;6.47;;;1.70;;
78169;SDS011;67412;49.892;14.490;2023-03-23T08:24:48;8.05;;;1.80;;
78169;SDS011;67412;49.892;14.490;2023-03-23T08:27:14;4.15;;;1.42;;
78169;SDS011;67412;49.892;14.490;2023-03-23T08:29:39;5.15;;;1.60;;
78169;SDS011;67412;49.892;14.490;2023-03-23T08:32:05;6.13;;;1.60;;
78169;SDS011;67412;49.892;14.490;2023-03-23T08:34:31;6.30;;;2.15;;
78169;SDS011;67412;49.892;14.490;2023-03-23T08:36:57;9.88;;;3.83;;
78169;SDS011;67412;49.892;14.490;2023-03-23T08:39:23;7.30;;;2.72;;
78169;SDS011;67412;49.892;14.490;2023-03-23T08:41:50;7.30;;;2.03;;
78169;SDS011;67412;49.892;14.490;2023-03-23T08:44:15;7.15;;;1.98;;
78169;SDS011;67412;49.892;14.490;2023-03-23T08:46:40;6.50;;;1.60;;
78169;SDS011;67412;49.892;14.490;2023-03-23T08:49:06;4.18;;;1.50;;
78169;SDS011;67412;49.892;14.490;2023-03-23T08:51:32;4.45;;;1.42;;
78169;SDS011;67412;49.892;14.490;2023-03-23T08:53:58;3.55;;;1.35;;
78169;SDS011;67412;49.892;14.490;2023-03-23T08:56:24;4.35;;;1.33;;
78169;SDS011;67412;49.892;14.490;2023-03-23T08:58:50;4.05;;;1.45;;
78169;SDS011;67412;49.892;14.490;2023-03-23T09:01:15;5.15;;;1.40;;
78169;SDS011;67412;49.892;14.490;2023-03-23T09:03:41;5.28;;;1.45;;
78169;SDS011;67412;49.892;14.490;2023-03-23T09:06:07;3.63;;;1.20;;
78169;SDS011;67412;49.892;14.490;2023-03-23T09:08:34;3.85;;;1.40;;
78169;SDS011;67412;49.892;14.490;2023-03-23T09:11:04;3.03;;;1.38;;
78169;SDS011;67412;49.892;14.490;2023-03-23T09:15:59;6.53;;;1.58;;
78169;SDS011;67412;49.892;14.490;2023-03-23T09:18:24;2.35;;;1.20;;
78169;SDS011;67412;49.892;14.490;2023-03-23T09:20:50;4.18;;;1.00;;
78169;SDS011;67412;49.892;14.490;2023-03-23T09:23:16;4.55;;;1.50;;
78169;SDS011;67412;49.892;14.490;2023-03-23T09:25:42;2.53;;;1.15;;
78169;SDS011;67412;49.892;14.490;2023-03-23T09:28:08;5.18;;;1.20;;
78169;SDS011;67412;49.892;14.490;2023-03-23T09:30:34;4.85;;;1.15;;
78169;SDS011;67412;49.892;14.490;2023-03-23T09:33:01;1.25;;;0.90;;
78169;SDS011;67412;49.892;14.490;2023-03-23T09:35:29;3.90;;;1.20;;
78169;SDS011;67412;49.892;14.490;2023-03-23T09:37:56;3.42;;;1.15;;
78169;SDS011;67412;49.892;14.490;2023-03-23T09:40:26;2.10;;;1.10;;
78169;SDS011;67412;49.892;14.490;2023-03-23T09:43:39;3.50;;;1.30;;
78169;SDS011;67412;49.892;14.490;2023-03-23T09:46:04;3.28;;;1.17;;
78169;SDS011;67412;49.892;14.490;2023-03-23T09:53:51;4.03;;;1.17;;
78169;SDS011;67412;49.892;14.490;2023-03-23T09:56:19;3.70;;;1.15;;
78169;SDS011;67412;49.892;14.490;2023-03-23T10:01:47;3.08;;;1.30;;
78169;SDS011;67412;49.892;14.490;2023-03-23T10:04:26;4.32;;;1.33;;
78169;SDS011;67412;49.892;14.490;2023-03-23T10:07:06;3.33;;;1.30;;
78169;SDS011;67412;49.892;14.490;2023-03-23T10:09:35;3.45;;;1.10;;
78169;SDS011;67412;49.892;14.490;2023-03-23T10:17:20;3.45;;;0.90;;
78169;SDS011;67412;49.892;14.490;2023-03-23T10:19:55;4.80;;;1.40;;
78169;SDS011;67412;49.892;14.490;2023-03-23T10:22:45;1.38;;;0.88;;
78169;SDS011;67412;49.892;14.490;2023-03-23T10:31:03;2.70;;;1.05;;
78169;SDS011;67412;49.892;14.490;2023-03-23T10:33:44;3.60;;;1.15;;
78169;SDS011;67412;49.892;14.490;2023-03-23T10:36:19;3.15;;;1.00;;
78169;SDS011;67412;49.892;14.490;2023-03-23T10:39:12;2.63;;;1.15;;
78169;SDS011;67412;49.892;14.490;2023-03-23T10:41:42;2.00;;;1.10;;
78169;SDS011;67412;49.892;14.490;2023-03-23T10:44:12;3.10;;;0.95;;
78169;SDS011;67412;49.892;14.490;2023-03-23T10:49:16;2.55;;;0.93;;
78169;SDS011;67412;49.892;14.490;2023-03-23T10:54:23;2.22;;;0.77;;
78169;SDS011;67412;49.892;14.490;2023-03-23T10:56:51;1.83;;;0.80;;
78169;SDS011;67412;49.892;14.490;2023-03-23T10:59:21;2.60;;;0.82;;
78169;SDS011;67412;49.892;14.490;2023-03-23T11:01:53;1.90;;;0.63;;
78169;SDS011;67412;49.892;14.490;2023-03-23T11:04:23;3.15;;;0.80;;
78169;SDS011;67412;49.892;14.490;2023-03-23T11:06:51;1.42;;;0.77;;
78169;SDS011;67412;49.892;14.490;2023-03-23T11:09:19;2.15;;;0.80;;
78169;SDS011;67412;49.892;14.490;2023-03-23T11:11:50;2.28;;;0.75;;
78169;SDS011;67412;49.892;14.490;2023-03-23T11:14:18;3.58;;;1.08;;
78169;SDS011;67412;49.892;14.490;2023-03-23T11:16:55;1.65;;;0.90;;
78169;SDS011;67412;49.892;14.490;2023-03-23T11:19:31;1.80;;;0.90;;
78169;SDS011;67412;49.892;14.490;2023-03-23T11:24:32;2.33;;;0.77;;
78169;SDS011;67412;49.892;14.490;2023-03-23T11:26:59;5.10;;;1.17;;
78169;SDS011;67412;49.892;14.490;2023-03-23T11:29:26;1.13;;;0.73;;
78169;SDS011;67412;49.892;14.490;2023-03-23T11:32:04;2.35;;;1.00;;
78169;SDS011;67412;49.892;14.490;2023-03-23T11:37:01;3.80;;;1.00;;
78169;SDS011;67412;49.892;14.490;2023-03-23T11:39:32;4.82;;;1.17;;
78169;SDS011;67412;49.892;14.490;2023-03-23T11:44:31;2.15;;;0.70;;
78169;SDS011;67412;49.892;14.490;2023-03-23T11:50:00;2.72;;;1.08;;
78169;SDS011;67412;49.892;14.490;2023-03-23T11:53:22;2.13;;;1.10;;
78169;SDS011;67412;49.892;14.490;2023-03-23T11:55:28;2.58;;;0.90;;
78169;SDS011;67412;49.892;14.490;2023-03-23T11:58:04;1.77;;;0.90;;
78169;SDS011;67412;49.892;14.490;2023-03-23T12:00:36;3.28;;;1.75;;
78169;SDS011;67412;49.892;14.490;2023-03-23T12:03:11;2.75;;;0.98;;
78169;SDS011;67412;49.892;14.490;2023-03-23T12:05:45;2.60;;;1.02;;
78169;SDS011;67412;49.892;14.490;2023-03-23T12:10:55;3.28;;;1.00;;
78169;SDS011;67412;49.892;14.490;2023-03-23T12:13:48;2.53;;;1.00;;
78169;SDS011;67412;49.892;14.490;2023-03-23T12:25:51;1.95;;;0.80;;
78169;SDS011;67412;49.892;14.490;2023-03-23T12:30:37;1.67;;;0.70;;
78169;SDS011;67412;49.892;14.490;2023-03-23T12:41:27;2.00;;;0.77;;
78169;SDS011;67412;49.892;14.490;2023-03-23T12:44:03;2.05;;;0.88;;
78169;SDS011;67412;49.892;14.490;2023-03-23T12:46:38;2.72;;;0.93;;
78169;SDS011;67412;49.892;14.490;2023-03-23T12:56:52;2.45;;;1.00;;
78169;SDS011;67412;49.892;14.490;2023-03-23T13:02:53;3.10;;;0.90;;
78169;SDS011;67412;49.892;14.490;2023-03-23T13:05:02;3.38;;;1.00;;
78169;SDS011;67412;49.892;14.490;2023-03-23T13:07:37;3.38;;;0.80;;
78169;SDS011;67412;49.892;14.490;2023-03-23T13:10:19;2.88;;;0.75;;
78169;SDS011;67412;49.892;14.490;2023-03-23T13:12:48;3.58;;;1.02;;
78169;SDS011;67412;49.892;14.490;2023-03-23T13:18:29;2.80;;;1.00;;
78169;SDS011;67412;49.892;14.490;2023-03-23T13:21:13;1.90;;;0.90;;
78169;SDS011;67412;49.892;14.490;2023-03-23T13:23:49;2.22;;;0.80;;
78169;SDS011;67412;49.892;14.490;2023-03-23T13:26:21;3.05;;;0.93;;
78169;SDS011;67412;49.892;14.490;2023-03-23T13:28:55;3.78;;;1.13;;
78169;SDS011;67412;49.892;14.490;2023-03-23T13:31:24;2.92;;;1.08;;
78169;SDS011;67412;49.892;14.490;2023-03-23T13:34:20;1.83;;;0.98;;
78169;SDS011;67412;49.892;14.490;2023-03-23T13:39:24;1.38;;;0.93;;
78169;SDS011;67412;49.892;14.490;2023-03-23T13:44:54;2.53;;;0.98;;
78169;SDS011;67412;49.892;14.490;2023-03-23T13:52:24;2.97;;;0.80;;
78169;SDS011;67412;49.892;14.490;2023-03-23T14:02:58;4.75;;;1.02;;
78169;SDS011;67412;49.892;14.490;2023-03-23T14:10:56;2.67;;;0.98;;
78169;SDS011;67412;49.892;14.490;2023-03-23T14:14:02;2.03;;;1.00;;
78169;SDS011;67412;49.892;14.490;2023-03-23T14:21:48;3.30;;;0.90;;
78169;SDS011;67412;49.892;14.490;2023-03-23T14:24:17;2.03;;;0.90;;
78169;SDS011;67412;49.892;14.490;2023-03-23T14:26:48;2.80;;;0.90;;
78169;SDS011;67412;49.892;14.490;2023-03-23T14:29:17;1.33;;;0.70;;
78169;SDS011;67412;49.892;14.490;2023-03-23T14:31:43;4.68;;;1.10;;
78169;SDS011;67412;49.892;14.490;2023-03-23T14:34:12;2.33;;;1.33;;
78169;SDS011;67412;49.892;14.490;2023-03-23T14:36:40;3.05;;;0.90;;
78169;SDS011;67412;49.892;14.490;2023-03-23T14:41:39;3.75;;;0.90;;
78169;SDS011;67412;49.892;14.490;2023-03-23T14:44:06;3.92;;;1.30;;
78169;SDS011;67412;49.892;14.490;2023-03-23T14:46:36;3.03;;;1.10;;
78169;SDS011;67412;49.892;14.490;2023-03-23T14:49:02;8.55;;;1.40;;
78169;SDS011;67412;49.892;14.490;2023-03-23T14:51:29;2.72;;;1.00;;
78169;SDS011;67412;49.892;14.490;2023-03-23T14:53:55;3.00;;;1.10;;
78169;SDS011;67412;49.892;14.490;2023-03-23T14:56:30;1.38;;;0.90;;
78169;SDS011;67412;49.892;14.490;2023-03-23T14:59:02;1.52;;;0.70;;
78169;SDS011;67412;49.892;14.490;2023-03-23T15:01:30;2.15;;;0.95;;
78169;SDS011;67412;49.892;14.490;2023-03-23T15:06:32;2.58;;;1.23;;
78169;SDS011;67412;49.892;14.490;2023-03-23T15:09:00;3.17;;;1.10;;
78169;SDS011;67412;49.892;14.490;2023-03-23T15:11:30;3.33;;;1.35;;
78169;SDS011;67412;49.892;14.490;2023-03-23T15:14:01;2.95;;;1.10;;
78169;SDS011;67412;49.892;14.490;2023-03-23T15:16:34;3.47;;;1.30;;
78169;SDS011;67412;49.892;14.490;2023-03-23T15:19:06;3.17;;;1.00;;
78169;SDS011;67412;49.892;14.490;2023-03-23T15:21:49;3.80;;;1.08;;
78169;SDS011;67412;49.892;14.490;2023-03-23T15:24:26;3.80;;;1.30;;
78169;SDS011;67412;49.892;14.490;2023-03-23T15:27:03;3.03;;;1.15;;
78169;SDS011;67412;49.892;14.490;2023-03-23T15:29:33;5.15;;;1.38;;
78169;SDS011;67412;49.892;14.490;2023-03-23T15:31:58;2.50;;;1.23;;
78169;SDS011;67412;49.892;14.490;2023-03-23T15:34:36;4.68;;;1.30;;
78169;SDS011;67412;49.892;14.490;2023-03-23T15:37:13;3.03;;;1.20;;
78169;SDS011;67412;49.892;14.490;2023-03-23T15:39:44;3.30;;;1.30;;
78169;SDS011;67412;49.892;14.490;2023-03-23T15:42:29;2.30;;;1.10;;
78169;SDS011;67412;49.892;14.490;2023-03-23T15:52:56;5.82;;;1.40;;
78169;SDS011;67412;49.892;14.490;2023-03-23T15:57:52;4.32;;;1.15;;
78169;SDS011;67412;49.892;14.490;2023-03-23T16:00:19;3.30;;;1.38;;
78169;SDS011;67412;49.892;14.490;2023-03-23T16:02:46;2.78;;;1.10;;
78169;SDS011;67412;49.892;14.490;2023-03-23T16:05:13;4.25;;;1.40;;
78169;SDS011;67412;49.892;14.490;2023-03-23T16:07:39;4.85;;;1.17;;
78169;SDS011;67412;49.892;14.490;2023-03-23T16:10:05;3.25;;;1.00;;
78169;SDS011;67412;49.892;14.490;2023-03-23T16:12:31;2.35;;;0.90;;
78169;SDS011;67412;49.892;14.490;2023-03-23T16:14:57;3.33;;;0.80;;
78169;SDS011;67412;49.892;14.490;2023-03-23T16:17:23;6.07;;;2.08;;
78169;SDS011;67412;49.892;14.490;2023-03-23T16:19:49;1.33;;;0.60;;
78169;SDS011;67412;49.892;14.490;2023-03-23T16:22:15;2.38;;;0.90;;
78169;SDS011;67412;49.892;14.490;2023-03-23T16:24:40;2.28;;;0.77;;
78169;SDS011;67412;49.892;14.490;2023-03-23T16:27:07;1.88;;;0.73;;
78169;SDS011;67412;49.892;14.490;2023-03-23T16:29:33;1.65;;;0.98;;
78169;SDS011;67412;49.892;14.490;2023-03-23T16:31:59;2.20;;;0.90;;
78169;SDS011;67412;49.892;14.490;2023-03-23T16:34:25;2.10;;;0.98;;
78169;SDS011;67412;49.892;14.490;2023-03-23T16:36:52;1.77;;;0.70;;
78169;SDS011;67412;49.892;14.490;2023-03-23T16:39:18;2.45;;;1.00;;
78169;SDS011;67412;49.892;14.490;2023-03-23T16:41:43;3.63;;;1.00;;
78169;SDS011;67412;49.892;14.490;2023-03-23T16:44:10;2.00;;;0.90;;
78169;SDS011;67412;49.892;14.490;2023-03-23T16:46:35;4.53;;;1.20;;
78169;SDS011;67412;49.892;14.490;2023-03-23T16:49:01;1.20;;;0.80;;
78169;SDS011;67412;49.892;14.490;2023-03-23T16:51:26;1.25;;;0.82;;
78169;SDS011;67412;49.892;14.490;2023-03-23T16:53:52;3.05;;;1.25;;
78169;SDS011;67412;49.892;14.490;2023-03-23T16:56:17;4.50;;;1.02;;
78169;SDS011;67412;49.892;14.490;2023-03-23T16:58:43;4.25;;;1.20;;
78169;SDS011;67412;49.892;14.490;2023-03-23T17:01:08;5.50;;;1.38;;
78169;SDS011;67412;49.892;14.490;2023-03-23T17:03:33;4.28;;;1.30;;
78169;SDS011;67412;49.892;14.490;2023-03-23T17:05:59;3.28;;;1.20;;
78169;SDS011;67412;49.892;14.490;2023-03-23T17:08:26;3.22;;;1.00;;
78169;SDS011;67412;49.892;14.490;2023-03-23T17:10:51;3.97;;;1.10;;
78169;SDS011;67412;49.892;14.490;2023-03-23T17:13:17;3.47;;;1.30;;
78169;SDS011;67412;49.892;14.490;2023-03-23T17:15:43;6.60;;;1.50;;